sensor_id;sensor_type;location;lat;lon;timestamp;P1;durP1;ratioP1;P2;durP2;ratioP2
39140;SDS011;24875;48.436;10.298;2022-10-31T00:02:13;11.47;;;5.73;;
39140;SDS011;24875;48.436;10.298;2022-10-31T00:04:41;10.33;;;5.13;;
39140;SDS011;24875;48.436;10.298;2022-10-31T00:07:14;11.67;;;5.37;;
39140;SDS011;24875;48.436;10.298;2022-10-31T00:09:40;10.57;;;5.10;;
39140;SDS011;24875;48.436;10.298;2022-10-31T00:12:07;9.80;;;5.50;;
39140;SDS011;24875;48.436;10.298;2022-10-31T00:14:33;10.87;;;5.30;;
39140;SDS011;24875;48.436;10.298;2022-10-31T00:17:00;9.57;;;4.83;;
39140;SDS011;24875;48.436;10.298;2022-10-31T00:19:26;14.27;;;5.10;;
39140;SDS011;24875;48.436;10.298;2022-10-31T00:21:54;13.83;;;5.77;;
39140;SDS011;24875;48.436;10.298;2022-10-31T00:24:20;9.60;;;5.40;;
39140;SDS011;24875;48.436;10.298;2022-10-31T00:26:47;9.77;;;5.37;;
39140;SDS011;24875;48.436;10.298;2022-10-31T00:29:13;10.03;;;5.30;;
39140;SDS011;24875;48.436;10.298;2022-10-31T00:31:40;9.07;;;4.90;;
39140;SDS011;24875;48.436;10.298;2022-10-31T00:34:07;8.93;;;5.00;;
39140;SDS011;24875;48.436;10.298;2022-10-31T00:36:33;12.40;;;5.53;;
39140;SDS011;24875;48.436;10.298;2022-10-31T00:39:01;9.93;;;4.60;;
39140;SDS011;24875;48.436;10.298;2022-10-31T00:41:28;9.60;;;4.90;;
39140;SDS011;24875;48.436;10.298;2022-10-31T00:43:55;9.57;;;4.63;;
39140;SDS011;24875;48.436;10.298;2022-10-31T00:46:21;8.80;;;4.80;;
39140;SDS011;24875;48.436;10.298;2022-10-31T00:48:48;7.50;;;4.50;;
39140;SDS011;24875;48.436;10.298;2022-10-31T00:51:14;13.27;;;5.00;;
39140;SDS011;24875;48.436;10.298;2022-10-31T00:53:41;8.30;;;4.40;;
39140;SDS011;24875;48.436;10.298;2022-10-31T00:56:08;7.90;;;4.90;;
39140;SDS011;24875;48.436;10.298;2022-10-31T00:58:35;7.03;;;4.30;;
39140;SDS011;24875;48.436;10.298;2022-10-31T01:01:02;11.00;;;5.20;;
39140;SDS011;24875;48.436;10.298;2022-10-31T01:03:30;8.47;;;5.00;;
39140;SDS011;24875;48.436;10.298;2022-10-31T01:05:58;7.67;;;4.73;;
39140;SDS011;24875;48.436;10.298;2022-10-31T01:08:26;6.43;;;4.63;;
39140;SDS011;24875;48.436;10.298;2022-10-31T01:11:01;8.50;;;4.73;;
39140;SDS011;24875;48.436;10.298;2022-10-31T01:13:31;13.10;;;4.60;;
39140;SDS011;24875;48.436;10.298;2022-10-31T01:15:58;11.07;;;5.40;;
39140;SDS011;24875;48.436;10.298;2022-10-31T01:18:25;7.57;;;4.57;;
39140;SDS011;24875;48.436;10.298;2022-10-31T01:20:59;7.73;;;5.10;;
39140;SDS011;24875;48.436;10.298;2022-10-31T01:23:27;8.77;;;5.07;;
39140;SDS011;24875;48.436;10.298;2022-10-31T01:26:01;7.37;;;4.07;;
39140;SDS011;24875;48.436;10.298;2022-10-31T01:28:31;7.07;;;4.27;;
39140;SDS011;24875;48.436;10.298;2022-10-31T01:31:00;8.50;;;4.30;;
39140;SDS011;24875;48.436;10.298;2022-10-31T01:33:27;10.73;;;4.07;;
39140;SDS011;24875;48.436;10.298;2022-10-31T01:35:54;8.13;;;4.07;;
39140;SDS011;24875;48.436;10.298;2022-10-31T01:38:20;8.37;;;4.30;;
39140;SDS011;24875;48.436;10.298;2022-10-31T01:40:47;6.80;;;4.07;;
39140;SDS011;24875;48.436;10.298;2022-10-31T01:43:13;8.33;;;4.20;;
39140;SDS011;24875;48.436;10.298;2022-10-31T01:45:41;7.87;;;4.33;;
39140;SDS011;24875;48.436;10.298;2022-10-31T01:48:13;10.53;;;4.67;;
39140;SDS011;24875;48.436;10.298;2022-10-31T01:50:42;8.77;;;4.37;;
39140;SDS011;24875;48.436;10.298;2022-10-31T01:53:12;15.67;;;4.77;;
39140;SDS011;24875;48.436;10.298;2022-10-31T01:55:39;8.70;;;4.60;;
39140;SDS011;24875;48.436;10.298;2022-10-31T01:58:11;10.33;;;4.40;;
39140;SDS011;24875;48.436;10.298;2022-10-31T02:00:42;7.77;;;4.10;;
39140;SDS011;24875;48.436;10.298;2022-10-31T02:03:11;10.43;;;4.33;;
39140;SDS011;24875;48.436;10.298;2022-10-31T02:05:38;6.93;;;3.73;;
39140;SDS011;24875;48.436;10.298;2022-10-31T02:08:06;5.60;;;3.10;;
39140;SDS011;24875;48.436;10.298;2022-10-31T02:10:38;7.23;;;3.57;;
39140;SDS011;24875;48.436;10.298;2022-10-31T02:13:08;6.53;;;3.60;;
39140;SDS011;24875;48.436;10.298;2022-10-31T02:15:36;6.50;;;3.80;;
39140;SDS011;24875;48.436;10.298;2022-10-31T02:18:05;5.87;;;3.40;;
39140;SDS011;24875;48.436;10.298;2022-10-31T02:20:35;7.73;;;4.10;;
39140;SDS011;24875;48.436;10.298;2022-10-31T02:23:13;6.87;;;4.00;;
39140;SDS011;24875;48.436;10.298;2022-10-31T02:26:06;9.17;;;4.27;;
39140;SDS011;24875;48.436;10.298;2022-10-31T02:28:52;8.80;;;4.47;;
39140;SDS011;24875;48.436;10.298;2022-10-31T02:31:33;6.03;;;4.20;;
39140;SDS011;24875;48.436;10.298;2022-10-31T02:34:08;10.00;;;4.20;;
39140;SDS011;24875;48.436;10.298;2022-10-31T02:36:46;12.10;;;4.30;;
39140;SDS011;24875;48.436;10.298;2022-10-31T02:39:18;7.20;;;4.50;;
39140;SDS011;24875;48.436;10.298;2022-10-31T02:41:51;6.43;;;3.83;;
39140;SDS011;24875;48.436;10.298;2022-10-31T02:44:28;7.10;;;3.93;;
39140;SDS011;24875;48.436;10.298;2022-10-31T02:47:01;5.87;;;3.83;;
39140;SDS011;24875;48.436;10.298;2022-10-31T02:49:32;13.50;;;4.13;;
39140;SDS011;24875;48.436;10.298;2022-10-31T02:52:12;7.93;;;3.90;;
39140;SDS011;24875;48.436;10.298;2022-10-31T02:54:40;11.37;;;4.83;;
39140;SDS011;24875;48.436;10.298;2022-10-31T02:57:06;8.00;;;3.80;;
39140;SDS011;24875;48.436;10.298;2022-10-31T02:59:34;7.30;;;4.50;;
39140;SDS011;24875;48.436;10.298;2022-10-31T03:02:08;7.03;;;3.83;;
39140;SDS011;24875;48.436;10.298;2022-10-31T03:04:46;6.93;;;4.17;;
39140;SDS011;24875;48.436;10.298;2022-10-31T03:07:25;9.30;;;4.00;;
39140;SDS011;24875;48.436;10.298;2022-10-31T03:09:59;6.70;;;4.03;;
39140;SDS011;24875;48.436;10.298;2022-10-31T03:12:33;8.50;;;4.10;;
39140;SDS011;24875;48.436;10.298;2022-10-31T03:15:07;8.47;;;3.87;;
39140;SDS011;24875;48.436;10.298;2022-10-31T03:17:46;6.83;;;3.97;;
39140;SDS011;24875;48.436;10.298;2022-10-31T03:20:21;15.53;;;4.53;;
39140;SDS011;24875;48.436;10.298;2022-10-31T03:22:52;6.57;;;3.80;;
39140;SDS011;24875;48.436;10.298;2022-10-31T03:25:21;9.50;;;4.07;;
39140;SDS011;24875;48.436;10.298;2022-10-31T03:27:48;8.13;;;4.23;;
39140;SDS011;24875;48.436;10.298;2022-10-31T03:30:17;9.50;;;4.33;;
39140;SDS011;24875;48.436;10.298;2022-10-31T03:32:46;7.40;;;3.90;;
39140;SDS011;24875;48.436;10.298;2022-10-31T03:35:17;8.63;;;4.63;;
39140;SDS011;24875;48.436;10.298;2022-10-31T03:37:47;10.93;;;4.27;;
39140;SDS011;24875;48.436;10.298;2022-10-31T03:40:15;10.33;;;4.20;;
39140;SDS011;24875;48.436;10.298;2022-10-31T03:42:46;10.03;;;4.83;;
39140;SDS011;24875;48.436;10.298;2022-10-31T03:45:20;6.63;;;4.30;;
39140;SDS011;24875;48.436;10.298;2022-10-31T03:47:52;12.20;;;4.77;;
39140;SDS011;24875;48.436;10.298;2022-10-31T03:50:20;9.07;;;4.53;;
39140;SDS011;24875;48.436;10.298;2022-10-31T03:52:50;11.90;;;4.37;;
39140;SDS011;24875;48.436;10.298;2022-10-31T03:55:24;6.37;;;4.13;;
39140;SDS011;24875;48.436;10.298;2022-10-31T03:57:56;6.40;;;3.97;;
39140;SDS011;24875;48.436;10.298;2022-10-31T04:00:26;10.07;;;4.63;;
39140;SDS011;24875;48.436;10.298;2022-10-31T04:02:55;6.17;;;3.93;;
39140;SDS011;24875;48.436;10.298;2022-10-31T04:05:26;8.43;;;3.60;;
39140;SDS011;24875;48.436;10.298;2022-10-31T04:07:54;4.80;;;3.50;;
39140;SDS011;24875;48.436;10.298;2022-10-31T04:10:23;6.03;;;2.77;;
39140;SDS011;24875;48.436;10.298;2022-10-31T04:12:54;11.23;;;3.67;;
39140;SDS011;24875;48.436;10.298;2022-10-31T04:15:24;6.07;;;3.20;;
39140;SDS011;24875;48.436;10.298;2022-10-31T04:17:55;6.70;;;3.33;;
39140;SDS011;24875;48.436;10.298;2022-10-31T04:20:30;7.73;;;3.50;;
39140;SDS011;24875;48.436;10.298;2022-10-31T04:22:58;6.43;;;3.40;;
39140;SDS011;24875;48.436;10.298;2022-10-31T04:25:24;4.77;;;3.27;;
39140;SDS011;24875;48.436;10.298;2022-10-31T04:27:51;6.87;;;3.27;;
39140;SDS011;24875;48.436;10.298;2022-10-31T04:30:17;5.00;;;3.20;;
39140;SDS011;24875;48.436;10.298;2022-10-31T04:32:44;5.57;;;3.37;;
39140;SDS011;24875;48.436;10.298;2022-10-31T04:35:12;4.50;;;2.90;;
39140;SDS011;24875;48.436;10.298;2022-10-31T04:37:38;6.10;;;3.37;;
39140;SDS011;24875;48.436;10.298;2022-10-31T04:40:05;7.33;;;3.33;;
39140;SDS011;24875;48.436;10.298;2022-10-31T04:42:32;6.80;;;4.17;;
39140;SDS011;24875;48.436;10.298;2022-10-31T04:44:59;6.20;;;3.57;;
39140;SDS011;24875;48.436;10.298;2022-10-31T04:47:25;5.57;;;3.73;;
39140;SDS011;24875;48.436;10.298;2022-10-31T04:49:52;4.93;;;3.37;;
39140;SDS011;24875;48.436;10.298;2022-10-31T04:52:20;7.43;;;3.00;;
39140;SDS011;24875;48.436;10.298;2022-10-31T04:54:46;7.73;;;4.00;;
39140;SDS011;24875;48.436;10.298;2022-10-31T04:57:13;5.87;;;3.47;;
39140;SDS011;24875;48.436;10.298;2022-10-31T04:59:39;11.80;;;3.60;;
39140;SDS011;24875;48.436;10.298;2022-10-31T05:02:06;6.23;;;3.77;;
39140;SDS011;24875;48.436;10.298;2022-10-31T05:04:32;7.57;;;3.67;;
39140;SDS011;24875;48.436;10.298;2022-10-31T05:06:59;9.27;;;3.33;;
39140;SDS011;24875;48.436;10.298;2022-10-31T05:09:27;6.27;;;3.60;;
39140;SDS011;24875;48.436;10.298;2022-10-31T05:11:53;8.13;;;3.53;;
39140;SDS011;24875;48.436;10.298;2022-10-31T05:14:20;9.77;;;3.27;;
39140;SDS011;24875;48.436;10.298;2022-10-31T05:16:46;7.70;;;3.90;;
39140;SDS011;24875;48.436;10.298;2022-10-31T05:19:13;6.97;;;4.00;;
39140;SDS011;24875;48.436;10.298;2022-10-31T05:21:39;5.60;;;3.77;;
39140;SDS011;24875;48.436;10.298;2022-10-31T05:24:06;9.80;;;4.83;;
39140;SDS011;24875;48.436;10.298;2022-10-31T05:26:34;5.63;;;3.50;;
39140;SDS011;24875;48.436;10.298;2022-10-31T05:29:01;7.37;;;4.07;;
39140;SDS011;24875;48.436;10.298;2022-10-31T05:31:27;8.27;;;4.50;;
39140;SDS011;24875;48.436;10.298;2022-10-31T05:33:54;11.90;;;4.67;;
39140;SDS011;24875;48.436;10.298;2022-10-31T05:36:20;11.77;;;5.23;;
39140;SDS011;24875;48.436;10.298;2022-10-31T05:38:47;12.17;;;4.70;;
39140;SDS011;24875;48.436;10.298;2022-10-31T05:41:13;16.60;;;4.50;;
39140;SDS011;24875;48.436;10.298;2022-10-31T05:43:41;12.73;;;3.83;;
39140;SDS011;24875;48.436;10.298;2022-10-31T05:46:08;7.87;;;3.70;;
39140;SDS011;24875;48.436;10.298;2022-10-31T05:48:34;5.93;;;3.43;;
39140;SDS011;24875;48.436;10.298;2022-10-31T05:51:01;4.90;;;3.33;;
39140;SDS011;24875;48.436;10.298;2022-10-31T05:53:27;10.27;;;4.37;;
39140;SDS011;24875;48.436;10.298;2022-10-31T05:55:54;11.20;;;3.50;;
39140;SDS011;24875;48.436;10.298;2022-10-31T05:58:20;6.27;;;3.20;;
39140;SDS011;24875;48.436;10.298;2022-10-31T06:00:48;9.53;;;3.60;;
39140;SDS011;24875;48.436;10.298;2022-10-31T06:03:14;6.67;;;3.70;;
39140;SDS011;24875;48.436;10.298;2022-10-31T06:05:41;6.27;;;3.70;;
39140;SDS011;24875;48.436;10.298;2022-10-31T06:08:08;9.80;;;4.27;;
39140;SDS011;24875;48.436;10.298;2022-10-31T06:10:34;9.37;;;4.20;;
39140;SDS011;24875;48.436;10.298;2022-10-31T06:13:01;8.90;;;4.13;;
39140;SDS011;24875;48.436;10.298;2022-10-31T06:15:27;8.70;;;3.70;;
39140;SDS011;24875;48.436;10.298;2022-10-31T06:17:59;7.53;;;3.97;;
39140;SDS011;24875;48.436;10.298;2022-10-31T06:20:26;10.63;;;4.03;;
39140;SDS011;24875;48.436;10.298;2022-10-31T06:22:52;9.63;;;4.17;;
39140;SDS011;24875;48.436;10.298;2022-10-31T06:25:19;9.13;;;4.03;;
39140;SDS011;24875;48.436;10.298;2022-10-31T06:27:46;10.93;;;4.40;;
39140;SDS011;24875;48.436;10.298;2022-10-31T06:30:12;10.77;;;5.00;;
39140;SDS011;24875;48.436;10.298;2022-10-31T06:32:39;6.37;;;3.80;;
39140;SDS011;24875;48.436;10.298;2022-10-31T06:35:07;6.33;;;3.70;;
39140;SDS011;24875;48.436;10.298;2022-10-31T06:37:34;6.17;;;3.60;;
39140;SDS011;24875;48.436;10.298;2022-10-31T06:40:01;6.60;;;3.80;;
39140;SDS011;24875;48.436;10.298;2022-10-31T06:42:27;6.80;;;3.87;;
39140;SDS011;24875;48.436;10.298;2022-10-31T06:44:54;9.07;;;4.57;;
39140;SDS011;24875;48.436;10.298;2022-10-31T06:47:20;8.37;;;4.40;;
39140;SDS011;24875;48.436;10.298;2022-10-31T06:49:47;12.17;;;5.23;;
39140;SDS011;24875;48.436;10.298;2022-10-31T06:52:15;14.20;;;5.33;;
39140;SDS011;24875;48.436;10.298;2022-10-31T06:54:41;12.07;;;4.73;;
39140;SDS011;24875;48.436;10.298;2022-10-31T06:57:08;9.87;;;5.10;;
39140;SDS011;24875;48.436;10.298;2022-10-31T06:59:34;13.17;;;5.50;;
39140;SDS011;24875;48.436;10.298;2022-10-31T07:02:01;13.00;;;6.10;;
39140;SDS011;24875;48.436;10.298;2022-10-31T07:04:28;9.13;;;5.00;;
39140;SDS011;24875;48.436;10.298;2022-10-31T07:06:54;7.63;;;4.63;;
39140;SDS011;24875;48.436;10.298;2022-10-31T07:09:22;8.97;;;4.90;;
39140;SDS011;24875;48.436;10.298;2022-10-31T07:11:50;8.70;;;5.03;;
39140;SDS011;24875;48.436;10.298;2022-10-31T07:14:17;5.67;;;4.00;;
39140;SDS011;24875;48.436;10.298;2022-10-31T07:16:47;7.80;;;4.37;;
39140;SDS011;24875;48.436;10.298;2022-10-31T07:19:15;7.37;;;4.53;;
39140;SDS011;24875;48.436;10.298;2022-10-31T07:21:41;9.20;;;5.23;;
39140;SDS011;24875;48.436;10.298;2022-10-31T07:24:08;7.63;;;4.40;;
39140;SDS011;24875;48.436;10.298;2022-10-31T07:26:36;6.63;;;4.40;;
39140;SDS011;24875;48.436;10.298;2022-10-31T07:29:02;6.73;;;4.17;;
39140;SDS011;24875;48.436;10.298;2022-10-31T07:31:29;10.37;;;4.43;;
39140;SDS011;24875;48.436;10.298;2022-10-31T07:33:56;9.00;;;4.50;;
39140;SDS011;24875;48.436;10.298;2022-10-31T07:36:22;7.83;;;4.43;;
39140;SDS011;24875;48.436;10.298;2022-10-31T07:38:49;10.87;;;4.83;;
39140;SDS011;24875;48.436;10.298;2022-10-31T07:41:16;9.57;;;4.70;;
39140;SDS011;24875;48.436;10.298;2022-10-31T07:43:43;10.13;;;4.70;;
39140;SDS011;24875;48.436;10.298;2022-10-31T07:46:10;9.90;;;4.80;;
39140;SDS011;24875;48.436;10.298;2022-10-31T07:48:37;8.77;;;4.50;;
39140;SDS011;24875;48.436;10.298;2022-10-31T07:51:03;7.27;;;4.57;;
39140;SDS011;24875;48.436;10.298;2022-10-31T07:53:31;11.33;;;5.27;;
39140;SDS011;24875;48.436;10.298;2022-10-31T07:55:58;14.03;;;5.20;;
39140;SDS011;24875;48.436;10.298;2022-10-31T07:58:24;13.33;;;5.53;;
39140;SDS011;24875;48.436;10.298;2022-10-31T08:00:52;9.87;;;5.47;;
39140;SDS011;24875;48.436;10.298;2022-10-31T08:03:19;12.57;;;5.67;;
39140;SDS011;24875;48.436;10.298;2022-10-31T08:05:46;11.60;;;5.40;;
39140;SDS011;24875;48.436;10.298;2022-10-31T08:08:13;13.80;;;5.53;;
39140;SDS011;24875;48.436;10.298;2022-10-31T08:10:40;8.57;;;5.17;;
39140;SDS011;24875;48.436;10.298;2022-10-31T08:13:08;13.47;;;5.47;;
39140;SDS011;24875;48.436;10.298;2022-10-31T08:15:35;12.27;;;5.80;;
39140;SDS011;24875;48.436;10.298;2022-10-31T08:18:06;11.97;;;5.80;;
39140;SDS011;24875;48.436;10.298;2022-10-31T08:20:36;12.50;;;6.40;;
39140;SDS011;24875;48.436;10.298;2022-10-31T08:23:04;9.57;;;5.47;;
39140;SDS011;24875;48.436;10.298;2022-10-31T08:25:31;12.33;;;6.10;;
39140;SDS011;24875;48.436;10.298;2022-10-31T08:27:59;11.97;;;6.63;;
39140;SDS011;24875;48.436;10.298;2022-10-31T08:30:27;15.30;;;7.20;;
39140;SDS011;24875;48.436;10.298;2022-10-31T08:32:58;19.63;;;7.57;;
39140;SDS011;24875;48.436;10.298;2022-10-31T08:35:27;14.40;;;7.57;;
39140;SDS011;24875;48.436;10.298;2022-10-31T08:37:54;14.87;;;7.87;;
39140;SDS011;24875;48.436;10.298;2022-10-31T08:40:21;13.23;;;7.10;;
39140;SDS011;24875;48.436;10.298;2022-10-31T08:42:55;16.73;;;7.07;;
39140;SDS011;24875;48.436;10.298;2022-10-31T08:45:22;15.75;;;7.78;;
39140;SDS011;24875;48.436;10.298;2022-10-31T08:47:49;17.02;;;8.57;;
39140;SDS011;24875;48.436;10.298;2022-10-31T08:50:15;16.75;;;8.30;;
39140;SDS011;24875;48.436;10.298;2022-10-31T08:52:43;19.42;;;7.22;;
39140;SDS011;24875;48.436;10.298;2022-10-31T08:55:10;17.13;;;8.07;;
39140;SDS011;24875;48.436;10.298;2022-10-31T08:57:36;16.65;;;8.10;;
39140;SDS011;24875;48.436;10.298;2022-10-31T09:00:03;13.90;;;8.40;;
39140;SDS011;24875;48.436;10.298;2022-10-31T09:02:31;12.48;;;7.10;;
39140;SDS011;24875;48.436;10.298;2022-10-31T09:04:57;16.02;;;8.18;;
39140;SDS011;24875;48.436;10.298;2022-10-31T09:07:24;18.95;;;8.27;;
39140;SDS011;24875;48.436;10.298;2022-10-31T09:09:52;20.55;;;8.45;;
39140;SDS011;24875;48.436;10.298;2022-10-31T09:12:20;19.98;;;8.45;;
39140;SDS011;24875;48.436;10.298;2022-10-31T09:14:48;14.50;;;7.97;;
39140;SDS011;24875;48.436;10.298;2022-10-31T09:17:15;14.02;;;9.13;;
39140;SDS011;24875;48.436;10.298;2022-10-31T09:19:42;15.32;;;7.65;;
39140;SDS011;24875;48.436;10.298;2022-10-31T09:22:08;18.15;;;8.05;;
39140;SDS011;24875;48.436;10.298;2022-10-31T09:24:35;15.95;;;7.28;;
39140;SDS011;24875;48.436;10.298;2022-10-31T09:27:03;17.58;;;7.90;;
39140;SDS011;24875;48.436;10.298;2022-10-31T09:29:29;14.70;;;8.07;;
39140;SDS011;24875;48.436;10.298;2022-10-31T09:31:56;16.30;;;8.35;;
39140;SDS011;24875;48.436;10.298;2022-10-31T09:34:23;17.10;;;9.20;;
39140;SDS011;24875;48.436;10.298;2022-10-31T09:36:49;18.45;;;8.73;;
39140;SDS011;24875;48.436;10.298;2022-10-31T09:39:16;15.00;;;8.98;;
39140;SDS011;24875;48.436;10.298;2022-10-31T09:41:49;17.25;;;8.93;;
39140;SDS011;24875;48.436;10.298;2022-10-31T09:44:38;17.48;;;8.55;;
39140;SDS011;24875;48.436;10.298;2022-10-31T09:47:13;11.95;;;7.18;;
39140;SDS011;24875;48.436;10.298;2022-10-31T09:49:53;14.10;;;7.25;;
39140;SDS011;24875;48.436;10.298;2022-10-31T09:52:33;14.45;;;7.03;;
39140;SDS011;24875;48.436;10.298;2022-10-31T09:55:02;14.75;;;7.15;;
39140;SDS011;24875;48.436;10.298;2022-10-31T09:57:36;14.75;;;7.75;;
39140;SDS011;24875;48.436;10.298;2022-10-31T10:00:03;14.85;;;6.88;;
39140;SDS011;24875;48.436;10.298;2022-10-31T10:02:33;13.43;;;6.70;;
39140;SDS011;24875;48.436;10.298;2022-10-31T10:05:04;12.48;;;6.82;;
39140;SDS011;24875;48.436;10.298;2022-10-31T10:07:39;11.15;;;6.50;;
39140;SDS011;24875;48.436;10.298;2022-10-31T10:10:13;12.30;;;6.85;;
39140;SDS011;24875;48.436;10.298;2022-10-31T10:12:47;12.32;;;7.75;;
39140;SDS011;24875;48.436;10.298;2022-10-31T10:15:34;13.45;;;7.45;;
39140;SDS011;24875;48.436;10.298;2022-10-31T10:18:11;11.45;;;6.93;;
39140;SDS011;24875;48.436;10.298;2022-10-31T10:21:01;13.80;;;7.22;;
39140;SDS011;24875;48.436;10.298;2022-10-31T10:23:38;13.07;;;7.28;;
39140;SDS011;24875;48.436;10.298;2022-10-31T10:26:15;14.43;;;6.75;;
39140;SDS011;24875;48.436;10.298;2022-10-31T10:28:47;12.75;;;7.22;;
39140;SDS011;24875;48.436;10.298;2022-10-31T10:31:16;14.93;;;7.18;;
39140;SDS011;24875;48.436;10.298;2022-10-31T10:33:47;12.20;;;7.43;;
39140;SDS011;24875;48.436;10.298;2022-10-31T10:36:27;11.57;;;7.60;;
39140;SDS011;24875;48.436;10.298;2022-10-31T10:39:00;15.35;;;7.13;;
39140;SDS011;24875;48.436;10.298;2022-10-31T10:41:31;14.68;;;7.20;;
39140;SDS011;24875;48.436;10.298;2022-10-31T10:44:00;13.88;;;7.38;;
39140;SDS011;24875;48.436;10.298;2022-10-31T10:46:30;13.73;;;6.97;;
39140;SDS011;24875;48.436;10.298;2022-10-31T10:49:22;13.90;;;7.55;;
39140;SDS011;24875;48.436;10.298;2022-10-31T10:51:55;14.18;;;7.40;;
39140;SDS011;24875;48.436;10.298;2022-10-31T10:57:19;14.15;;;7.53;;
39140;SDS011;24875;48.436;10.298;2022-10-31T10:59:54;17.02;;;8.38;;
39140;SDS011;24875;48.436;10.298;2022-10-31T11:02:22;18.55;;;8.18;;
39140;SDS011;24875;48.436;10.298;2022-10-31T11:04:50;19.05;;;8.70;;
39140;SDS011;24875;48.436;10.298;2022-10-31T11:07:18;20.02;;;8.65;;
39140;SDS011;24875;48.436;10.298;2022-10-31T11:09:45;18.13;;;8.45;;
39140;SDS011;24875;48.436;10.298;2022-10-31T11:12:16;16.83;;;9.02;;
39140;SDS011;24875;48.436;10.298;2022-10-31T11:14:46;14.40;;;8.52;;
39140;SDS011;24875;48.436;10.298;2022-10-31T11:17:22;20.50;;;8.57;;
39140;SDS011;24875;48.436;10.298;2022-10-31T11:20:01;18.25;;;9.73;;
39140;SDS011;24875;48.436;10.298;2022-10-31T11:22:30;21.05;;;8.82;;
39140;SDS011;24875;48.436;10.298;2022-10-31T11:24:56;18.70;;;9.80;;
39140;SDS011;24875;48.436;10.298;2022-10-31T11:27:24;22.02;;;10.60;;
39140;SDS011;24875;48.436;10.298;2022-10-31T11:29:51;20.50;;;10.05;;
39140;SDS011;24875;48.436;10.298;2022-10-31T11:32:20;20.95;;;9.85;;
39140;SDS011;24875;48.436;10.298;2022-10-31T11:34:50;22.88;;;10.18;;
39140;SDS011;24875;48.436;10.298;2022-10-31T11:37:20;20.92;;;10.85;;
39140;SDS011;24875;48.436;10.298;2022-10-31T11:39:49;21.85;;;11.18;;
39140;SDS011;24875;48.436;10.298;2022-10-31T11:42:19;20.58;;;10.70;;
39140;SDS011;24875;48.436;10.298;2022-10-31T11:44:48;23.95;;;12.10;;
39140;SDS011;24875;48.436;10.298;2022-10-31T11:47:17;23.13;;;12.13;;
39140;SDS011;24875;48.436;10.298;2022-10-31T11:49:52;22.33;;;11.77;;
39140;SDS011;24875;48.436;10.298;2022-10-31T11:52:19;28.73;;;12.52;;
39140;SDS011;24875;48.436;10.298;2022-10-31T11:54:49;29.75;;;13.35;;
39140;SDS011;24875;48.436;10.298;2022-10-31T11:57:23;26.15;;;12.30;;
39140;SDS011;24875;48.436;10.298;2022-10-31T11:59:52;26.20;;;12.38;;
39140;SDS011;24875;48.436;10.298;2022-10-31T12:02:20;29.08;;;11.35;;
39140;SDS011;24875;48.436;10.298;2022-10-31T12:04:49;22.40;;;10.80;;
39140;SDS011;24875;48.436;10.298;2022-10-31T12:07:23;30.50;;;11.55;;
39140;SDS011;24875;48.436;10.298;2022-10-31T12:09:50;25.48;;;11.20;;
39140;SDS011;24875;48.436;10.298;2022-10-31T12:15:27;24.05;;;10.73;;
39140;SDS011;24875;48.436;10.298;2022-10-31T12:18:17;23.98;;;11.60;;
39140;SDS011;24875;48.436;10.298;2022-10-31T12:21:08;26.60;;;12.15;;
39140;SDS011;24875;48.436;10.298;2022-10-31T12:23:53;23.38;;;11.35;;
39140;SDS011;24875;48.436;10.298;2022-10-31T12:26:32;25.10;;;12.40;;
39140;SDS011;24875;48.436;10.298;2022-10-31T12:29:09;23.70;;;11.02;;
39140;SDS011;24875;48.436;10.298;2022-10-31T12:31:46;25.48;;;11.15;;
39140;SDS011;24875;48.436;10.298;2022-10-31T12:34:29;28.85;;;11.75;;
39140;SDS011;24875;48.436;10.298;2022-10-31T12:37:10;24.55;;;11.45;;
39140;SDS011;24875;48.436;10.298;2022-10-31T12:39:49;29.38;;;11.82;;
39140;SDS011;24875;48.436;10.298;2022-10-31T12:42:24;27.60;;;12.70;;
39140;SDS011;24875;48.436;10.298;2022-10-31T12:45:18;25.98;;;12.27;;
39140;SDS011;24875;48.436;10.298;2022-10-31T12:48:12;28.25;;;12.18;;
39140;SDS011;24875;48.436;10.298;2022-10-31T12:50:52;28.92;;;13.02;;
39140;SDS011;24875;48.436;10.298;2022-10-31T12:53:30;26.23;;;13.02;;
39140;SDS011;24875;48.436;10.298;2022-10-31T12:56:07;28.77;;;13.10;;
39140;SDS011;24875;48.436;10.298;2022-10-31T12:58:44;25.80;;;13.18;;
39140;SDS011;24875;48.436;10.298;2022-10-31T13:01:16;25.10;;;12.38;;
39140;SDS011;24875;48.436;10.298;2022-10-31T13:03:47;27.17;;;12.60;;
39140;SDS011;24875;48.436;10.298;2022-10-31T13:06:18;23.05;;;12.50;;
39140;SDS011;24875;48.436;10.298;2022-10-31T13:08:49;30.13;;;13.38;;
39140;SDS011;24875;48.436;10.298;2022-10-31T13:11:20;30.63;;;13.15;;
39140;SDS011;24875;48.436;10.298;2022-10-31T13:13:52;27.55;;;12.48;;
39140;SDS011;24875;48.436;10.298;2022-10-31T13:16:27;29.90;;;13.05;;
39140;SDS011;24875;48.436;10.298;2022-10-31T13:18:57;25.35;;;12.70;;
39140;SDS011;24875;48.436;10.298;2022-10-31T13:21:30;23.95;;;11.98;;
39140;SDS011;24875;48.436;10.298;2022-10-31T13:24:04;26.98;;;12.75;;
39140;SDS011;24875;48.436;10.298;2022-10-31T13:26:38;26.77;;;12.45;;
39140;SDS011;24875;48.436;10.298;2022-10-31T13:29:12;33.10;;;13.32;;
39140;SDS011;24875;48.436;10.298;2022-10-31T13:31:44;28.42;;;13.05;;
39140;SDS011;24875;48.436;10.298;2022-10-31T13:34:16;25.23;;;12.30;;
39140;SDS011;24875;48.436;10.298;2022-10-31T13:36:51;26.10;;;12.05;;
39140;SDS011;24875;48.436;10.298;2022-10-31T13:39:30;22.75;;;12.50;;
39140;SDS011;24875;48.436;10.298;2022-10-31T13:42:08;31.65;;;12.50;;
39140;SDS011;24875;48.436;10.298;2022-10-31T13:44:41;27.40;;;13.63;;
39140;SDS011;24875;48.436;10.298;2022-10-31T13:47:20;28.60;;;12.30;;
39140;SDS011;24875;48.436;10.298;2022-10-31T13:49:48;29.88;;;13.27;;
39140;SDS011;24875;48.436;10.298;2022-10-31T13:52:16;31.08;;;13.15;;
39140;SDS011;24875;48.436;10.298;2022-10-31T13:54:51;31.13;;;13.35;;
39140;SDS011;24875;48.436;10.298;2022-10-31T13:57:23;25.40;;;13.00;;
39140;SDS011;24875;48.436;10.298;2022-10-31T13:59:59;28.45;;;12.60;;
39140;SDS011;24875;48.436;10.298;2022-10-31T14:02:28;25.95;;;13.13;;
39140;SDS011;24875;48.436;10.298;2022-10-31T14:04:57;35.30;;;13.25;;
39140;SDS011;24875;48.436;10.298;2022-10-31T14:07:26;25.55;;;13.32;;
39140;SDS011;24875;48.436;10.298;2022-10-31T14:09:57;36.20;;;13.63;;
39140;SDS011;24875;48.436;10.298;2022-10-31T14:12:29;31.45;;;13.77;;
39140;SDS011;24875;48.436;10.298;2022-10-31T14:14:58;30.85;;;14.02;;
39140;SDS011;24875;48.436;10.298;2022-10-31T14:17:30;31.67;;;13.88;;
39140;SDS011;24875;48.436;10.298;2022-10-31T14:20:24;29.65;;;13.30;;
39140;SDS011;24875;48.436;10.298;2022-10-31T14:22:57;35.10;;;13.88;;
39140;SDS011;24875;48.436;10.298;2022-10-31T14:25:34;31.00;;;13.98;;
39140;SDS011;24875;48.436;10.298;2022-10-31T14:28:05;28.83;;;14.55;;
39140;SDS011;24875;48.436;10.298;2022-10-31T14:30:50;25.33;;;13.82;;
39140;SDS011;24875;48.436;10.298;2022-10-31T14:33:19;30.92;;;14.05;;
39140;SDS011;24875;48.436;10.298;2022-10-31T14:35:48;26.10;;;14.45;;
39140;SDS011;24875;48.436;10.298;2022-10-31T14:41:33;26.70;;;13.43;;
39140;SDS011;24875;48.436;10.298;2022-10-31T14:47:12;28.27;;;13.98;;
39140;SDS011;24875;48.436;10.298;2022-10-31T14:49:50;27.17;;;14.77;;
39140;SDS011;24875;48.436;10.298;2022-10-31T14:52:31;26.05;;;13.25;;
39140;SDS011;24875;48.436;10.298;2022-10-31T14:54:58;32.35;;;14.75;;